Spring Creek, Texas
Current Conditions -  °F | °C
As of 10:15 PM on Friday 19 Dec 2014 (Local Time) from KT82 Reporting Station
Overcast Overcast  
Wind Chill: 44°   Ceiling: 1300
Heat Index: 47°   Visibility: 10mi
Dew Point: 43°   Wind: 8mph
Humidity: 84%   Direction: 40°NE
Pressure: 30.17"   Gusts: NA
Location:  30.3069°N, 98.8978°W
Report Text: KT82 200415Z AUTO 04007KT 10SM OVC013 09/06 A3017 RMK AO2 T00860061
Loading
Personal Weather Stations






























Interactive Weather Map New forecast layout! Learn more

10-Day Weather Forecast

Advertisements
Track Severe Weather on mobile